KBQK/BQK METAR and TAF weather

Enter ICAO airport designator
Station Type Date Time Source
KBQK METAR 2022/01/18 08:15 UTC NOAA

KBQK 180815Z AUTO 28004KT 10SM CLR 01/M01 A3013 RMK AO2 T00111012


Station Type Date Time Source
KBQK Decoded METAR 2022/01/18 08:15 UTC NOAA

Brunswick / Glynco, GA, United States (KBQK) 31-15N 081-28W
Jan 18, 2022 - 03:15 AM EST / 2022.01.18 0815 UTC
Wind: from the W (280 degrees) at 5 MPH (4 KT):0
Visibility: 10 mile(s):0
Sky conditions: clear
Temperature: 34.0 F (1.1 C)
Windchill: 30 F (-1 C):1
Dew Point: 29.8 F (-1.2 C)
Relative Humidity: 84%
Pressure (altimeter): 30.13 in. Hg (1020 hPa)
ob: KBQK 180815Z AUTO 28004KT 10SM CLR 01/M01 A3013 RMK AO2 T00111012
cycle: 8

Station Type Date Time Source
KBQK TAF UTC NOAA

Error!

Example: see airport list